createdAt,value
2022-11-24T00:01:13.441Z,1.04
2022-11-24T00:03:41.488Z,1.12
2022-11-24T00:06:11.181Z,1.15
2022-11-24T00:08:40.510Z,1.25
2022-11-24T00:11:09.577Z,1.24
2022-11-24T00:13:39.095Z,1.13
2022-11-24T00:16:09.432Z,1.02
2022-11-24T00:18:37.679Z,1.08
2022-11-24T00:21:05.330Z,1.25
2022-11-24T00:23:33.458Z,1.02
2022-11-24T00:26:05.777Z,1.15
2022-11-24T00:28:33.951Z,1.26
2022-11-24T00:31:05.078Z,1.40
2022-11-24T00:33:32.876Z,1.26
2022-11-24T00:36:00.833Z,1.24
2022-11-24T00:38:31.060Z,1.24
2022-11-24T00:40:58.497Z,1.30
2022-11-24T00:43:26.347Z,1.41
2022-11-24T00:45:53.715Z,1.57
2022-11-24T00:48:23.255Z,1.68
2022-11-24T00:50:56.739Z,1.61
2022-11-24T00:53:24.655Z,1.54
2022-11-24T00:55:52.146Z,1.68
2022-11-24T00:58:20.174Z,1.73
2022-11-24T01:00:47.368Z,1.45
2022-11-24T01:03:15.387Z,1.31
2022-11-24T01:05:44.072Z,1.38
2022-11-24T01:08:12.345Z,1.26
2022-11-24T01:10:39.696Z,1.39
2022-11-24T01:13:07.384Z,1.40
2022-11-24T01:15:35.578Z,1.50
2022-11-24T01:18:04.014Z,1.37
2022-11-24T01:20:31.632Z,1.21
2022-11-24T01:23:00.810Z,1.09
2022-11-24T01:25:28.103Z,1.14
2022-11-24T01:27:55.778Z,1.22
2022-11-24T01:30:23.089Z,1.33
2022-11-24T01:32:50.736Z,1.37
2022-11-24T01:35:18.136Z,1.30
2022-11-24T01:37:45.858Z,1.44
2022-11-24T01:40:14.638Z,1.52
2022-11-24T01:42:48.395Z,1.42
2022-11-24T01:45:38.104Z,1.29
2022-11-24T01:48:11.451Z,1.22
2022-11-24T01:50:39.402Z,1.33
2022-11-24T01:53:07.858Z,1.07
2022-11-24T01:55:39.389Z,1.15
2022-11-24T01:58:11.244Z,1.14
2022-11-24T02:00:41.626Z,1.16
2022-11-24T02:03:11.849Z,1.01
2022-11-24T02:05:44.001Z,0.92
2022-11-24T02:08:17.871Z,1.12
2022-11-24T02:10:47.391Z,1.34
2022-11-24T02:13:15.516Z,1.37
2022-11-24T02:15:42.955Z,1.21
2022-11-24T02:18:10.823Z,0.98
2022-11-24T02:20:38.363Z,0.94
2022-11-24T02:23:13.364Z,0.94
2022-11-24T02:25:50.454Z,0.96
2022-11-24T02:28:22.489Z,0.89
2022-11-24T02:30:50.615Z,0.91
2022-11-24T02:33:20.374Z,0.97
2022-11-24T02:35:47.708Z,0.97
2022-11-24T02:38:15.497Z,0.82
2022-11-24T02:40:46.807Z,0.70
2022-11-24T02:43:19.859Z,0.75
2022-11-24T02:45:48.627Z,0.84
2022-11-24T02:48:16.580Z,0.73
2022-11-24T02:50:43.896Z,0.56
2022-11-24T02:53:11.607Z,0.39
2022-11-24T02:55:38.970Z,0.51
2022-11-24T02:58:06.822Z,0.71
2022-11-24T03:00:34.149Z,0.82
2022-11-24T03:03:03.978Z,0.98
2022-11-24T03:05:31.275Z,0.98
2022-11-24T03:07:59.058Z,0.87
2022-11-24T03:10:26.267Z,0.98
2022-11-24T03:12:54.892Z,1.12
2022-11-24T03:15:22.381Z,0.93
2022-11-24T03:17:50.342Z,0.62
2022-11-24T03:20:19.300Z,0.47
2022-11-24T03:22:47.043Z,0.51
2022-11-24T03:25:14.418Z,0.57
2022-11-24T03:27:42.192Z,0.52
2022-11-24T03:30:10.891Z,0.48
2022-11-24T03:32:38.592Z,0.61
2022-11-24T03:35:06.670Z,0.67
2022-11-24T03:37:35.781Z,0.84
2022-11-24T03:40:03.314Z,0.80
2022-11-24T03:42:31.045Z,0.86
2022-11-24T03:45:01.642Z,0.78
2022-11-24T03:47:39.312Z,0.65
2022-11-24T03:50:06.960Z,0.47
2022-11-24T03:52:36.071Z,0.47
2022-11-24T03:55:03.441Z,0.51
2022-11-24T03:57:31.147Z,0.70
2022-11-24T03:59:58.374Z,0.61
2022-11-24T04:02:26.055Z,0.56
2022-11-24T04:04:53.364Z,0.62
2022-11-24T04:07:21.039Z,0.51
2022-11-24T04:09:49.853Z,0.58
2022-11-24T04:12:17.571Z,0.63
2022-11-24T04:14:44.869Z,0.55
2022-11-24T04:17:12.689Z,0.51
2022-11-24T04:19:39.982Z,0.49
2022-11-24T04:22:07.705Z,0.57
2022-11-24T04:24:35.345Z,0.62
2022-11-24T04:27:04.600Z,0.68
2022-11-24T04:29:32.022Z,0.73
2022-11-24T04:31:59.759Z,0.74
2022-11-24T04:34:27.138Z,0.86
2022-11-24T04:36:54.965Z,0.80
2022-11-24T04:39:26.280Z,0.76
2022-11-24T04:41:54.669Z,0.81
2022-11-24T04:44:23.411Z,0.92
2022-11-24T04:46:51.241Z,0.90
2022-11-24T04:49:18.991Z,0.94
2022-11-24T04:51:47.043Z,1.23
2022-11-24T04:54:15.138Z,1.22
2022-11-24T04:56:43.531Z,1.41
2022-11-24T04:59:13.686Z,1.29
2022-11-24T05:01:43.257Z,1.38
2022-11-24T05:04:11.336Z,1.35
2022-11-24T05:06:39.362Z,1.50
2022-11-24T05:09:08.076Z,1.44
2022-11-24T05:11:35.685Z,1.22
2022-11-24T05:14:03.044Z,1.17
2022-11-24T05:16:30.840Z,0.91
2022-11-24T05:18:59.658Z,0.70
2022-11-24T05:21:28.431Z,0.59
2022-11-24T05:23:55.746Z,0.67
2022-11-24T05:26:23.480Z,0.86
2022-11-24T05:28:50.753Z,0.86
2022-11-24T05:31:18.703Z,0.86
2022-11-24T05:33:46.081Z,0.83
2022-11-24T05:36:15.281Z,0.77
2022-11-24T05:38:42.609Z,0.86
2022-11-24T05:41:10.347Z,0.95
2022-11-24T05:43:37.607Z,1.02
2022-11-24T05:46:05.439Z,0.98
2022-11-24T05:48:32.771Z,1.05
2022-11-24T05:51:03.116Z,1.03
2022-11-24T05:53:33.735Z,0.97
2022-11-24T05:56:03.457Z,0.98
2022-11-24T05:58:30.793Z,1.10
2022-11-24T06:00:58.440Z,0.95
2022-11-24T06:03:25.713Z,0.87
2022-11-24T06:05:53.445Z,0.84
2022-11-24T06:08:20.610Z,0.90
2022-11-24T06:10:49.709Z,1.00
2022-11-24T06:13:16.999Z,1.08
2022-11-24T06:15:44.811Z,1.05
2022-11-24T06:18:12.116Z,1.04
2022-11-24T06:20:39.711Z,1.14
2022-11-24T06:23:06.966Z,1.26
2022-11-24T06:25:34.537Z,1.11
2022-11-24T06:28:05.017Z,1.09
2022-11-24T06:30:32.767Z,1.18
2022-11-24T06:33:00.452Z,1.16
2022-11-24T06:35:28.133Z,1.17
2022-11-24T06:37:55.463Z,1.17
2022-11-24T06:40:23.099Z,1.22
2022-11-24T06:42:50.841Z,1.50
2022-11-24T06:45:20.026Z,1.67
2022-11-24T06:47:47.239Z,1.82
2022-11-24T06:50:15.194Z,1.94
2022-11-24T06:52:42.662Z,1.94
2022-11-24T06:55:10.416Z,1.87
2022-11-24T06:57:37.795Z,1.79
2022-11-24T07:00:07.150Z,1.91
2022-11-24T07:02:39.818Z,2.00
2022-11-24T07:05:10.282Z,1.80
2022-11-24T07:07:37.694Z,1.70
2022-11-24T07:10:06.595Z,1.74
2022-11-24T07:12:34.627Z,1.81
2022-11-24T07:15:02.324Z,1.75
2022-11-24T07:17:29.794Z,1.73
2022-11-24T07:19:59.006Z,1.94
2022-11-24T07:22:26.307Z,2.07
2022-11-24T07:24:54.118Z,2.01
2022-11-24T07:27:23.551Z,2.11
2022-11-24T07:29:51.129Z,2.16
2022-11-24T07:32:18.447Z,2.16
2022-11-24T07:34:46.289Z,2.20
2022-11-24T07:37:15.284Z,2.26
2022-11-24T07:39:42.986Z,2.26
2022-11-24T07:42:10.211Z,2.24
2022-11-24T07:44:37.811Z,2.21
2022-11-24T07:47:05.186Z,2.31
2022-11-24T07:49:32.911Z,2.16
2022-11-24T07:52:00.184Z,2.15
2022-11-24T07:54:29.317Z,2.08
2022-11-24T07:56:56.961Z,2.27
2022-11-24T07:59:24.637Z,2.28
2022-11-24T08:01:52.041Z,2.25
2022-11-24T08:04:19.936Z,2.20
2022-11-24T08:06:47.741Z,2.26
2022-11-24T08:09:15.643Z,2.11
2022-11-24T08:11:44.223Z,2.04
2022-11-24T08:14:11.840Z,2.13
2022-11-24T08:16:39.208Z,2.31
2022-11-24T08:19:06.828Z,2.34
2022-11-24T08:21:34.042Z,2.40
2022-11-24T08:24:01.796Z,2.54
2022-11-24T08:26:29.260Z,2.61
2022-11-24T08:28:59.628Z,2.68
2022-11-24T08:31:28.598Z,2.73
2022-11-24T08:33:56.225Z,2.88
2022-11-24T08:36:23.543Z,2.78
2022-11-24T08:38:55.321Z,2.92
2022-11-24T08:41:23.327Z,3.00
2022-11-24T08:43:51.420Z,3.28
2022-11-24T08:46:20.598Z,3.33
2022-11-24T08:48:49.237Z,3.40
2022-11-24T08:51:18.388Z,3.43
2022-11-24T08:53:46.708Z,3.45
2022-11-24T08:56:14.632Z,3.70
2022-11-24T08:58:42.479Z,3.59
2022-11-24T09:01:11.378Z,3.61
2022-11-24T09:03:46.353Z,3.41
2022-11-24T09:06:16.418Z,3.19
2022-11-24T09:08:44.328Z,2.98
2022-11-24T09:11:13.772Z,2.96
2022-11-24T09:13:41.511Z,2.89
2022-11-24T09:16:11.293Z,3.09
2022-11-24T09:18:40.904Z,3.02
2022-11-24T09:21:09.577Z,3.16
2022-11-24T09:23:37.749Z,3.15
2022-11-24T09:26:06.331Z,3.16
2022-11-24T09:28:34.124Z,3.16
2022-11-24T09:31:02.022Z,3.32
2022-11-24T09:33:29.872Z,3.48
2022-11-24T09:35:58.617Z,3.45
2022-11-24T09:38:26.831Z,3.49
2022-11-24T09:40:57.816Z,3.59
2022-11-24T09:43:33.289Z,3.49
2022-11-24T09:46:08.993Z,3.18
2022-11-24T09:48:40.256Z,3.06
2022-11-24T09:51:12.374Z,3.10
2022-11-24T09:53:46.018Z,3.04
2022-11-24T09:56:20.642Z,3.16
2022-11-24T09:58:50.336Z,3.18
2022-11-24T10:01:19.811Z,3.23
2022-11-24T10:03:50.186Z,3.03
2022-11-24T10:06:27.492Z,3.05
2022-11-24T10:09:10.676Z,3.15
2022-11-24T10:11:43.078Z,3.31
2022-11-24T10:14:24.359Z,3.43
2022-11-24T10:16:55.873Z,3.30
2022-11-24T10:19:37.548Z,3.36
2022-11-24T10:22:23.706Z,3.37
2022-11-24T10:25:09.271Z,3.53
2022-11-24T10:27:41.864Z,3.54
2022-11-24T10:30:15.440Z,3.68
2022-11-24T10:32:46.629Z,3.80
2022-11-24T10:35:18.147Z,3.76
2022-11-24T10:37:54.514Z,3.81
2022-11-24T10:43:19.150Z,3.96
2022-11-24T10:45:47.445Z,3.97
2022-11-24T10:48:20.671Z,4.15
2022-11-24T10:50:48.414Z,4.25
2022-11-24T10:53:23.205Z,4.13
2022-11-24T10:56:02.484Z,4.15
2022-11-24T10:58:36.054Z,4.37
2022-11-24T11:01:20.845Z,4.37
2022-11-24T11:03:50.165Z,4.65
2022-11-24T11:06:22.609Z,4.63
2022-11-24T11:09:16.654Z,4.82
2022-11-24T11:11:44.338Z,4.75
2022-11-24T11:14:11.741Z,5.01
2022-11-24T11:16:41.336Z,5.04
2022-11-24T11:19:48.493Z,5.10
2022-11-24T11:22:24.979Z,4.99
2022-11-24T11:25:14.118Z,5.08
2022-11-24T11:27:42.545Z,5.25
2022-11-24T11:36:10.499Z,5.29
2022-11-24T11:38:40.485Z,5.33
2022-11-24T11:41:19.220Z,5.16
2022-11-24T11:43:50.553Z,5.37
2022-11-24T11:46:17.981Z,5.42
2022-11-24T11:48:47.663Z,5.28
2022-11-24T11:51:33.659Z,5.23
2022-11-24T11:54:08.317Z,5.10
2022-11-24T11:56:41.513Z,5.10
2022-11-24T11:59:39.310Z,4.95
2022-11-24T12:02:35.118Z,5.04
2022-11-24T12:05:11.137Z,5.08
2022-11-24T12:08:09.201Z,4.92
2022-11-24T12:10:45.743Z,4.69
2022-11-24T12:13:45.766Z,4.76
2022-11-24T12:16:30.341Z,4.64
2022-11-24T12:19:15.095Z,4.62
2022-11-24T12:21:52.243Z,4.74
2022-11-24T12:24:28.500Z,4.83
2022-11-24T12:27:00.025Z,4.95
2022-11-24T12:29:57.201Z,4.97
2022-11-24T12:32:40.904Z,4.99
2022-11-24T12:35:18.932Z,5.25
2022-11-24T12:37:56.477Z,5.18
2022-11-24T12:40:35.519Z,5.41
2022-11-24T12:43:11.620Z,5.58
2022-11-24T12:45:49.905Z,5.43
2022-11-24T12:48:29.164Z,5.35
2022-11-24T12:50:58.410Z,5.21
2022-11-24T12:53:29.315Z,5.18
2022-11-24T12:56:04.605Z,5.31
2022-11-24T12:58:40.425Z,5.35
2022-11-24T13:01:17.841Z,5.19
2022-11-24T13:04:00.681Z,5.26
2022-11-24T13:06:35.256Z,5.29
2022-11-24T13:09:08.527Z,5.32
2022-11-24T13:11:40.134Z,5.54
2022-11-24T13:14:14.876Z,5.68
2022-11-24T13:19:46.954Z,5.75
2022-11-24T13:22:17.047Z,5.77
2022-11-24T13:24:45.073Z,5.93
2022-11-24T13:27:39.908Z,5.71
2022-11-24T13:30:50.173Z,5.35
2022-11-24T13:33:34.232Z,5.49
2022-11-24T13:36:31.683Z,5.40
2022-11-24T13:39:00.097Z,5.22
2022-11-24T13:42:07.607Z,5.37
2022-11-24T13:44:49.567Z,5.37
2022-11-24T13:47:41.280Z,5.46
2022-11-24T13:50:14.570Z,5.54
2022-11-24T13:52:50.719Z,5.47
2022-11-24T13:55:23.620Z,5.44
2022-11-24T13:57:53.668Z,5.44
2022-11-24T14:00:24.320Z,5.34
2022-11-24T14:02:55.137Z,5.29
2022-11-24T14:05:33.692Z,5.61
2022-11-24T14:08:04.943Z,5.83
2022-11-24T14:10:35.737Z,5.80
2022-11-24T14:13:26.988Z,5.93
2022-11-24T14:16:06.037Z,5.58
2022-11-24T14:18:35.517Z,5.52
2022-11-24T14:21:22.341Z,5.47
2022-11-24T14:23:54.503Z,5.50
2022-11-24T14:26:24.328Z,5.54
2022-11-24T14:29:05.025Z,5.82
2022-11-24T14:31:32.385Z,5.75
2022-11-24T14:34:25.084Z,5.82
2022-11-24T14:36:53.625Z,5.82
2022-11-24T14:39:24.269Z,5.97
2022-11-24T14:41:53.520Z,5.99
2022-11-24T14:44:23.825Z,5.92
2022-11-24T14:47:00.543Z,5.74
2022-11-24T14:49:28.760Z,5.63
2022-11-24T14:51:58.437Z,5.46
2022-11-24T14:54:28.640Z,5.45
2022-11-24T14:56:58.859Z,5.41
2022-11-24T14:59:28.382Z,5.51
2022-11-24T15:01:56.201Z,5.62
2022-11-24T15:07:18.712Z,5.41
2022-11-24T15:09:52.544Z,5.43
2022-11-24T15:12:26.349Z,5.49
2022-11-24T15:14:56.586Z,5.55
2022-11-24T15:17:27.100Z,5.64
2022-11-24T15:19:58.510Z,5.65
2022-11-24T15:22:37.971Z,5.65
2022-11-24T15:25:34.229Z,5.54
2022-11-24T15:28:01.459Z,5.21
2022-11-24T15:30:30.242Z,4.83
2022-11-24T15:32:58.996Z,4.66
2022-11-24T15:35:31.050Z,4.75
2022-11-24T15:37:58.726Z,4.78
2022-11-24T15:40:26.310Z,4.97
2022-11-24T15:42:57.900Z,5.04
2022-11-24T15:45:27.192Z,5.13
2022-11-24T15:47:54.485Z,5.12
2022-11-24T15:50:22.094Z,5.13
2022-11-24T15:52:49.597Z,5.18
2022-11-24T15:55:19.464Z,5.17
2022-11-24T15:57:47.378Z,5.12
2022-11-24T16:00:19.792Z,5.07
2022-11-24T16:02:47.533Z,5.15
2022-11-24T16:05:17.633Z,5.23
2022-11-24T16:07:45.233Z,5.27
2022-11-24T16:10:21.853Z,5.09
2022-11-24T16:12:49.127Z,4.94
2022-11-24T16:15:18.292Z,4.92
2022-11-24T16:17:48.493Z,4.95
2022-11-24T16:20:16.426Z,5.05
2022-11-24T16:22:44.154Z,4.82
2022-11-24T16:25:12.651Z,4.70
2022-11-24T16:27:39.981Z,4.80
2022-11-24T16:30:09.359Z,4.79
2022-11-24T16:32:38.092Z,4.90
2022-11-24T16:35:09.285Z,5.01
2022-11-24T16:37:36.633Z,4.99
2022-11-24T16:40:06.081Z,5.20
2022-11-24T16:42:33.541Z,5.07
2022-11-24T16:45:01.288Z,4.86
2022-11-24T16:47:28.756Z,4.74
2022-11-24T16:49:58.014Z,4.64
2022-11-24T16:52:25.367Z,4.45
2022-11-24T16:54:53.273Z,4.55
2022-11-24T16:57:20.590Z,4.69
2022-11-24T16:59:48.406Z,4.68
2022-11-24T17:02:15.894Z,4.46
2022-11-24T17:04:43.639Z,4.53
2022-11-24T17:07:12.641Z,4.42
2022-11-24T17:09:40.967Z,4.35
2022-11-24T17:12:08.421Z,4.33
2022-11-24T17:14:36.466Z,4.39
2022-11-24T17:17:04.195Z,4.40
2022-11-24T17:19:32.020Z,4.32
2022-11-24T17:21:59.376Z,4.31
2022-11-24T17:24:28.501Z,4.51
2022-11-24T17:26:55.944Z,4.64
2022-11-24T17:29:23.604Z,4.60
2022-11-24T17:31:50.952Z,4.52
2022-11-24T17:34:19.191Z,4.49
2022-11-24T17:36:46.661Z,4.55
2022-11-24T17:39:14.443Z,4.57
2022-11-24T17:41:43.312Z,4.47
2022-11-24T17:44:14.108Z,4.41
2022-11-24T17:46:43.699Z,4.40
2022-11-24T17:49:15.471Z,4.38
2022-11-24T17:51:43.618Z,4.42
2022-11-24T17:54:39.103Z,4.50
2022-11-24T17:57:01.457Z,4.58
2022-11-24T17:59:29.454Z,4.46
2022-11-24T18:01:56.776Z,4.54
2022-11-24T18:04:24.486Z,4.55
2022-11-24T18:06:51.913Z,4.37
2022-11-24T18:09:19.896Z,4.43
2022-11-24T18:11:47.222Z,4.51
2022-11-24T18:14:16.564Z,4.65
2022-11-24T18:16:44.100Z,4.69
2022-11-24T18:19:12.188Z,4.54
2022-11-24T18:21:41.057Z,4.60
2022-11-24T18:24:10.543Z,4.74
2022-11-24T18:26:38.886Z,4.69
2022-11-24T18:29:07.228Z,4.67
2022-11-24T18:31:36.706Z,4.57
2022-11-24T18:34:05.940Z,4.58
2022-11-24T18:36:33.966Z,4.48
2022-11-24T18:39:02.293Z,4.39
2022-11-24T18:41:29.869Z,4.59
2022-11-24T18:43:57.695Z,4.50
2022-11-24T18:46:25.063Z,4.48
2022-11-24T18:48:55.205Z,4.43
2022-11-24T18:51:22.507Z,4.38
2022-11-24T18:53:52.795Z,4.34
2022-11-24T18:56:20.528Z,4.29
2022-11-24T18:58:48.372Z,4.33
2022-11-24T19:01:17.506Z,4.28
2022-11-24T19:03:48.986Z,4.30
2022-11-24T19:06:21.947Z,4.33
2022-11-24T19:08:53.592Z,4.47
2022-11-24T19:11:23.587Z,4.52
2022-11-24T19:13:52.156Z,4.40
2022-11-24T19:16:20.663Z,4.43
2022-11-24T19:18:53.331Z,4.38
2022-11-24T19:21:23.262Z,4.47
2022-11-24T19:23:51.145Z,4.48
2022-11-24T19:26:18.952Z,4.53
2022-11-24T19:28:47.191Z,4.35
2022-11-24T19:31:16.224Z,4.37
2022-11-24T19:33:44.710Z,4.27
2022-11-24T19:36:14.901Z,4.14
2022-11-24T19:38:50.070Z,4.16
2022-11-24T19:41:18.318Z,4.19
2022-11-24T19:43:46.561Z,4.26
2022-11-24T19:46:16.153Z,4.31
2022-11-24T19:48:45.944Z,4.03
2022-11-24T19:51:15.401Z,3.97
2022-11-24T19:53:45.111Z,4.11
2022-11-24T19:56:13.964Z,4.24
2022-11-24T19:58:42.465Z,4.19
2022-11-24T20:01:12.374Z,4.27
2022-11-24T20:03:41.511Z,4.34
2022-11-24T20:06:10.163Z,4.58
2022-11-24T20:08:38.914Z,4.63
2022-11-24T20:11:10.217Z,4.70
2022-11-24T20:13:39.870Z,4.51
2022-11-24T20:16:09.593Z,4.56
2022-11-24T20:18:41.961Z,4.60
2022-11-24T20:21:11.896Z,4.67
2022-11-24T20:23:40.827Z,4.49
2022-11-24T20:26:12.327Z,4.32
2022-11-24T20:28:41.518Z,4.48
2022-11-24T20:31:11.410Z,4.52
2022-11-24T20:33:39.922Z,4.49
2022-11-24T20:36:09.587Z,4.59
2022-11-24T20:38:38.975Z,4.56
2022-11-24T20:41:09.998Z,4.53
2022-11-24T20:43:38.223Z,4.47
2022-11-24T20:46:08.182Z,4.45
2022-11-24T20:48:37.257Z,4.58
2022-11-24T20:51:05.405Z,4.68
2022-11-24T20:53:33.243Z,4.71
2022-11-24T20:56:05.559Z,4.81
2022-11-24T20:58:36.116Z,4.81
2022-11-24T21:01:04.666Z,4.81
2022-11-24T21:03:32.835Z,4.73
2022-11-24T21:06:00.564Z,4.70
2022-11-24T21:08:28.382Z,4.70
2022-11-24T21:10:57.267Z,4.76
2022-11-24T21:13:25.918Z,4.89
2022-11-24T21:15:55.502Z,4.93
2022-11-24T21:18:23.171Z,4.99
2022-11-24T21:20:50.360Z,5.18
2022-11-24T21:23:18.075Z,5.01
2022-11-24T21:25:45.366Z,4.90
2022-11-24T21:28:13.085Z,4.97
2022-11-24T21:30:40.418Z,4.93
2022-11-24T21:33:09.581Z,4.89
2022-11-24T21:35:37.275Z,5.09
2022-11-24T21:38:05.269Z,5.02
2022-11-24T21:40:32.536Z,5.01
2022-11-24T21:43:00.329Z,5.05
2022-11-24T21:45:27.695Z,5.16
2022-11-24T21:47:56.185Z,5.02
2022-11-24T21:50:25.048Z,5.08
2022-11-24T21:52:52.739Z,5.05
2022-11-24T21:55:20.012Z,4.82
2022-11-24T21:57:48.121Z,4.90
2022-11-24T22:00:16.383Z,5.01
2022-11-24T22:02:44.267Z,4.93
2022-11-24T22:05:11.668Z,4.95
2022-11-24T22:07:40.765Z,5.10
2022-11-24T22:10:09.373Z,5.12
2022-11-24T22:12:37.201Z,5.32
2022-11-24T22:15:05.070Z,5.17
2022-11-24T22:17:32.978Z,5.22
2022-11-24T22:20:00.327Z,5.27
2022-11-24T22:22:28.061Z,5.28
2022-11-24T22:24:56.613Z,5.34
2022-11-24T22:27:24.351Z,5.31
2022-11-24T22:29:54.232Z,5.48
2022-11-24T22:32:22.058Z,5.47
2022-11-24T22:34:49.953Z,5.34
2022-11-24T22:37:18.058Z,5.40
2022-11-24T22:39:45.550Z,5.45
2022-11-24T22:42:15.263Z,5.56
2022-11-24T22:44:43.155Z,5.44
2022-11-24T22:47:12.590Z,5.60
2022-11-24T22:49:39.959Z,5.39
2022-11-24T22:52:07.568Z,5.45
2022-11-24T22:54:35.026Z,5.54
2022-11-24T22:57:02.942Z,5.56
2022-11-24T22:59:31.589Z,5.51
2022-11-24T23:01:59.292Z,5.33
2022-11-24T23:04:26.754Z,5.05
2022-11-24T23:06:54.546Z,4.60
2022-11-24T23:09:21.962Z,4.86
2022-11-24T23:11:49.639Z,5.08
2022-11-24T23:14:17.113Z,5.06
2022-11-24T23:16:46.325Z,5.08
2022-11-24T23:19:13.697Z,5.11
2022-11-24T23:21:41.312Z,5.20
2022-11-24T23:24:10.221Z,5.01
2022-11-24T23:26:40.748Z,4.93
2022-11-24T23:29:09.703Z,4.75
2022-11-24T23:31:40.663Z,4.95
2022-11-24T23:34:09.962Z,4.98
2022-11-24T23:36:38.312Z,5.08
2022-11-24T23:39:13.716Z,5.19
2022-11-24T23:41:41.499Z,5.11
2022-11-24T23:44:08.989Z,5.14
2022-11-24T23:46:36.878Z,4.86
2022-11-24T23:49:04.138Z,4.75
2022-11-24T23:51:34.286Z,4.72
2022-11-24T23:54:01.630Z,4.93
2022-11-24T23:56:31.295Z,5.07
2022-11-24T23:59:00.471Z,4.93
